sensor_id;sensor_type;location;lat;lon;timestamp;P1;durP1;ratioP1;P2;durP2;ratioP2
59008;SDS011;44794;42.652;23.318;2023-11-21T00:02:04;7.20;;;3.85;;
59008;SDS011;44794;42.652;23.318;2023-11-21T00:04:29;5.57;;;3.05;;
59008;SDS011;44794;42.652;23.318;2023-11-21T00:06:55;5.70;;;2.88;;
59008;SDS011;44794;42.652;23.318;2023-11-21T00:09:20;8.38;;;4.30;;
59008;SDS011;44794;42.652;23.318;2023-11-21T00:11:46;6.65;;;2.90;;
59008;SDS011;44794;42.652;23.318;2023-11-21T00:14:12;5.97;;;3.70;;
59008;SDS011;44794;42.652;23.318;2023-11-21T00:16:39;11.90;;;2.97;;
59008;SDS011;44794;42.652;23.318;2023-11-21T00:19:05;7.57;;;3.60;;
59008;SDS011;44794;42.652;23.318;2023-11-21T00:21:30;6.35;;;4.18;;
59008;SDS011;44794;42.652;23.318;2023-11-21T00:23:56;5.95;;;3.33;;
59008;SDS011;44794;42.652;23.318;2023-11-21T00:26:21;6.13;;;2.97;;
59008;SDS011;44794;42.652;23.318;2023-11-21T00:28:46;4.97;;;2.65;;
59008;SDS011;44794;42.652;23.318;2023-11-21T00:31:12;7.47;;;2.38;;
59008;SDS011;44794;42.652;23.318;2023-11-21T00:33:37;3.53;;;2.75;;
59008;SDS011;44794;42.652;23.318;2023-11-21T00:36:02;8.05;;;3.03;;
59008;SDS011;44794;42.652;23.318;2023-11-21T00:38:28;3.10;;;2.70;;
59008;SDS011;44794;42.652;23.318;2023-11-21T00:40:53;9.75;;;4.78;;
59008;SDS011;44794;42.652;23.318;2023-11-21T00:43:24;6.60;;;3.22;;
59008;SDS011;44794;42.652;23.318;2023-11-21T00:45:49;5.43;;;3.03;;
59008;SDS011;44794;42.652;23.318;2023-11-21T00:48:15;7.55;;;3.00;;
59008;SDS011;44794;42.652;23.318;2023-11-21T00:50:40;7.47;;;2.92;;
59008;SDS011;44794;42.652;23.318;2023-11-21T00:53:06;6.43;;;3.78;;
59008;SDS011;44794;42.652;23.318;2023-11-21T00:55:32;12.63;;;3.58;;
59008;SDS011;44794;42.652;23.318;2023-11-21T00:57:58;9.50;;;4.93;;
59008;SDS011;44794;42.652;23.318;2023-11-21T01:00:24;7.47;;;2.65;;
59008;SDS011;44794;42.652;23.318;2023-11-21T01:02:50;7.63;;;3.70;;
59008;SDS011;44794;42.652;23.318;2023-11-21T01:05:15;5.05;;;2.60;;
59008;SDS011;44794;42.652;23.318;2023-11-21T01:07:41;5.30;;;3.35;;
59008;SDS011;44794;42.652;23.318;2023-11-21T01:10:06;7.55;;;3.65;;
59008;SDS011;44794;42.652;23.318;2023-11-21T01:12:36;6.82;;;3.33;;
59008;SDS011;44794;42.652;23.318;2023-11-21T01:15:03;3.80;;;2.70;;
59008;SDS011;44794;42.652;23.318;2023-11-21T01:17:32;13.52;;;4.72;;
59008;SDS011;44794;42.652;23.318;2023-11-21T01:19:59;9.02;;;3.35;;
59008;SDS011;44794;42.652;23.318;2023-11-21T01:22:25;8.05;;;3.05;;
59008;SDS011;44794;42.652;23.318;2023-11-21T01:24:51;4.28;;;3.28;;
59008;SDS011;44794;42.652;23.318;2023-11-21T01:27:18;8.13;;;4.32;;
59008;SDS011;44794;42.652;23.318;2023-11-21T01:29:44;3.03;;;2.20;;
59008;SDS011;44794;42.652;23.318;2023-11-21T01:32:09;3.53;;;2.67;;
59008;SDS011;44794;42.652;23.318;2023-11-21T01:34:35;4.88;;;3.28;;
59008;SDS011;44794;42.652;23.318;2023-11-21T01:37:00;7.20;;;4.18;;
59008;SDS011;44794;42.652;23.318;2023-11-21T01:39:26;4.95;;;2.70;;
59008;SDS011;44794;42.652;23.318;2023-11-21T01:41:51;9.00;;;3.67;;
59008;SDS011;44794;42.652;23.318;2023-11-21T01:44:17;5.57;;;4.03;;
59008;SDS011;44794;42.652;23.318;2023-11-21T01:46:44;5.03;;;3.47;;
59008;SDS011;44794;42.652;23.318;2023-11-21T01:49:11;8.68;;;3.95;;
59008;SDS011;44794;42.652;23.318;2023-11-21T01:51:41;7.20;;;3.75;;
59008;SDS011;44794;42.652;23.318;2023-11-21T01:54:08;10.27;;;4.13;;
59008;SDS011;44794;42.652;23.318;2023-11-21T01:56:34;5.75;;;2.78;;
59008;SDS011;44794;42.652;23.318;2023-11-21T01:59:00;6.43;;;2.88;;
59008;SDS011;44794;42.652;23.318;2023-11-21T02:01:26;6.00;;;3.78;;
59008;SDS011;44794;42.652;23.318;2023-11-21T02:03:51;7.55;;;2.80;;
59008;SDS011;44794;42.652;23.318;2023-11-21T02:06:17;7.30;;;2.38;;
59008;SDS011;44794;42.652;23.318;2023-11-21T02:08:43;6.13;;;3.83;;
59008;SDS011;44794;42.652;23.318;2023-11-21T02:11:09;5.72;;;3.55;;
59008;SDS011;44794;42.652;23.318;2023-11-21T02:13:38;7.90;;;3.42;;
59008;SDS011;44794;42.652;23.318;2023-11-21T02:16:03;7.05;;;2.92;;
59008;SDS011;44794;42.652;23.318;2023-11-21T02:18:31;6.32;;;3.53;;
59008;SDS011;44794;42.652;23.318;2023-11-21T02:20:56;9.25;;;4.40;;
59008;SDS011;44794;42.652;23.318;2023-11-21T02:23:22;6.75;;;4.55;;
59008;SDS011;44794;42.652;23.318;2023-11-21T02:25:48;6.40;;;3.00;;
59008;SDS011;44794;42.652;23.318;2023-11-21T02:28:13;5.10;;;3.03;;
59008;SDS011;44794;42.652;23.318;2023-11-21T02:30:41;6.50;;;2.95;;
59008;SDS011;44794;42.652;23.318;2023-11-21T02:33:07;2.35;;;2.13;;
59008;SDS011;44794;42.652;23.318;2023-11-21T02:35:32;4.60;;;2.83;;
59008;SDS011;44794;42.652;23.318;2023-11-21T02:37:58;6.45;;;3.17;;
59008;SDS011;44794;42.652;23.318;2023-11-21T02:40:23;4.93;;;3.10;;
59008;SDS011;44794;42.652;23.318;2023-11-21T02:42:52;8.57;;;3.30;;
59008;SDS011;44794;42.652;23.318;2023-11-21T02:45:18;5.97;;;3.22;;
59008;SDS011;44794;42.652;23.318;2023-11-21T02:47:47;6.03;;;3.65;;
59008;SDS011;44794;42.652;23.318;2023-11-21T02:50:14;6.85;;;3.83;;
59008;SDS011;44794;42.652;23.318;2023-11-21T02:52:39;6.45;;;3.15;;
59008;SDS011;44794;42.652;23.318;2023-11-21T02:55:05;11.43;;;5.45;;
59008;SDS011;44794;42.652;23.318;2023-11-21T02:57:32;12.95;;;5.50;;
59008;SDS011;44794;42.652;23.318;2023-11-21T02:59:58;10.68;;;5.65;;
59008;SDS011;44794;42.652;23.318;2023-11-21T03:02:25;6.78;;;3.78;;
59008;SDS011;44794;42.652;23.318;2023-11-21T03:04:50;9.52;;;5.30;;
59008;SDS011;44794;42.652;23.318;2023-11-21T03:07:16;11.57;;;5.70;;
59008;SDS011;44794;42.652;23.318;2023-11-21T03:09:44;10.90;;;3.50;;
59008;SDS011;44794;42.652;23.318;2023-11-21T03:12:10;7.72;;;3.42;;
59008;SDS011;44794;42.652;23.318;2023-11-21T03:14:37;6.13;;;3.95;;
59008;SDS011;44794;42.652;23.318;2023-11-21T03:17:02;4.75;;;3.75;;
59008;SDS011;44794;42.652;23.318;2023-11-21T03:19:29;11.82;;;4.95;;
59008;SDS011;44794;42.652;23.318;2023-11-21T03:21:55;11.88;;;4.82;;
59008;SDS011;44794;42.652;23.318;2023-11-21T03:24:21;5.97;;;3.15;;
59008;SDS011;44794;42.652;23.318;2023-11-21T03:26:47;6.88;;;3.85;;
59008;SDS011;44794;42.652;23.318;2023-11-21T03:29:13;11.88;;;5.45;;
59008;SDS011;44794;42.652;23.318;2023-11-21T03:31:39;6.40;;;3.53;;
59008;SDS011;44794;42.652;23.318;2023-11-21T03:34:05;7.07;;;3.45;;
59008;SDS011;44794;42.652;23.318;2023-11-21T03:36:31;11.60;;;4.47;;
59008;SDS011;44794;42.652;23.318;2023-11-21T03:38:57;5.68;;;3.22;;
59008;SDS011;44794;42.652;23.318;2023-11-21T03:41:22;7.47;;;2.80;;
59008;SDS011;44794;42.652;23.318;2023-11-21T03:43:48;6.88;;;4.38;;
59008;SDS011;44794;42.652;23.318;2023-11-21T03:46:13;5.68;;;3.30;;
59008;SDS011;44794;42.652;23.318;2023-11-21T03:48:39;5.95;;;3.25;;
59008;SDS011;44794;42.652;23.318;2023-11-21T03:51:05;11.88;;;5.65;;
59008;SDS011;44794;42.652;23.318;2023-11-21T03:53:30;7.47;;;4.22;;
59008;SDS011;44794;42.652;23.318;2023-11-21T03:55:56;8.55;;;3.63;;
59008;SDS011;44794;42.652;23.318;2023-11-21T03:58:21;5.13;;;3.17;;
59008;SDS011;44794;42.652;23.318;2023-11-21T04:00:47;7.00;;;4.15;;
59008;SDS011;44794;42.652;23.318;2023-11-21T04:03:15;3.63;;;2.28;;
59008;SDS011;44794;42.652;23.318;2023-11-21T04:05:41;5.55;;;3.42;;
59008;SDS011;44794;42.652;23.318;2023-11-21T04:08:06;3.80;;;2.55;;
59008;SDS011;44794;42.652;23.318;2023-11-21T04:10:32;4.90;;;2.92;;
59008;SDS011;44794;42.652;23.318;2023-11-21T04:12:58;4.57;;;2.50;;
59008;SDS011;44794;42.652;23.318;2023-11-21T04:15:25;4.85;;;3.08;;
59008;SDS011;44794;42.652;23.318;2023-11-21T04:17:50;5.07;;;2.95;;
59008;SDS011;44794;42.652;23.318;2023-11-21T04:20:16;9.63;;;3.97;;
59008;SDS011;44794;42.652;23.318;2023-11-21T04:22:43;3.13;;;2.28;;
59008;SDS011;44794;42.652;23.318;2023-11-21T04:25:13;5.97;;;2.85;;
59008;SDS011;44794;42.652;23.318;2023-11-21T04:27:40;3.92;;;2.50;;
59008;SDS011;44794;42.652;23.318;2023-11-21T04:30:08;2.75;;;1.70;;
59008;SDS011;44794;42.652;23.318;2023-11-21T04:32:35;4.20;;;2.60;;
59008;SDS011;44794;42.652;23.318;2023-11-21T04:35:00;4.75;;;2.17;;
59008;SDS011;44794;42.652;23.318;2023-11-21T04:37:25;3.40;;;2.47;;
59008;SDS011;44794;42.652;23.318;2023-11-21T04:39:51;4.53;;;2.45;;
59008;SDS011;44794;42.652;23.318;2023-11-21T04:42:17;4.00;;;2.65;;
59008;SDS011;44794;42.652;23.318;2023-11-21T04:44:42;4.80;;;3.03;;
59008;SDS011;44794;42.652;23.318;2023-11-21T04:47:09;2.15;;;1.95;;
59008;SDS011;44794;42.652;23.318;2023-11-21T04:49:34;6.75;;;3.17;;
59008;SDS011;44794;42.652;23.318;2023-11-21T04:52:00;6.05;;;2.97;;
59008;SDS011;44794;42.652;23.318;2023-11-21T04:54:26;5.18;;;2.55;;
59008;SDS011;44794;42.652;23.318;2023-11-21T04:56:52;5.75;;;4.45;;
59008;SDS011;44794;42.652;23.318;2023-11-21T04:59:17;5.63;;;3.00;;
59008;SDS011;44794;42.652;23.318;2023-11-21T05:01:43;9.60;;;4.18;;
59008;SDS011;44794;42.652;23.318;2023-11-21T05:04:08;10.40;;;3.53;;
59008;SDS011;44794;42.652;23.318;2023-11-21T05:06:34;6.53;;;3.03;;
59008;SDS011;44794;42.652;23.318;2023-11-21T05:08:59;7.38;;;3.92;;
59008;SDS011;44794;42.652;23.318;2023-11-21T05:11:25;8.55;;;4.55;;
59008;SDS011;44794;42.652;23.318;2023-11-21T05:13:52;9.55;;;3.58;;
59008;SDS011;44794;42.652;23.318;2023-11-21T05:16:18;9.23;;;3.72;;
59008;SDS011;44794;42.652;23.318;2023-11-21T05:18:44;6.03;;;3.33;;
59008;SDS011;44794;42.652;23.318;2023-11-21T05:21:10;8.13;;;4.03;;
59008;SDS011;44794;42.652;23.318;2023-11-21T05:23:35;15.88;;;3.40;;
59008;SDS011;44794;42.652;23.318;2023-11-21T05:26:01;8.18;;;4.50;;
59008;SDS011;44794;42.652;23.318;2023-11-21T05:28:26;9.13;;;5.38;;
59008;SDS011;44794;42.652;23.318;2023-11-21T05:30:52;7.13;;;4.57;;
59008;SDS011;44794;42.652;23.318;2023-11-21T05:33:18;7.93;;;4.47;;
59008;SDS011;44794;42.652;23.318;2023-11-21T05:35:43;16.70;;;6.70;;
59008;SDS011;44794;42.652;23.318;2023-11-21T05:38:09;7.18;;;5.07;;
59008;SDS011;44794;42.652;23.318;2023-11-21T05:40:34;12.45;;;5.57;;
59008;SDS011;44794;42.652;23.318;2023-11-21T05:43:00;13.48;;;5.72;;
59008;SDS011;44794;42.652;23.318;2023-11-21T05:45:25;14.52;;;6.40;;
59008;SDS011;44794;42.652;23.318;2023-11-21T05:47:50;13.00;;;5.43;;
59008;SDS011;44794;42.652;23.318;2023-11-21T05:50:16;8.40;;;4.40;;
59008;SDS011;44794;42.652;23.318;2023-11-21T05:52:43;12.77;;;5.85;;
59008;SDS011;44794;42.652;23.318;2023-11-21T05:55:10;9.13;;;5.18;;
59008;SDS011;44794;42.652;23.318;2023-11-21T05:57:39;9.18;;;4.85;;
59008;SDS011;44794;42.652;23.318;2023-11-21T06:00:05;11.90;;;4.75;;
59008;SDS011;44794;42.652;23.318;2023-11-21T06:02:50;8.73;;;4.60;;
59008;SDS011;44794;42.652;23.318;2023-11-21T06:05:18;8.13;;;4.63;;
59008;SDS011;44794;42.652;23.318;2023-11-21T06:07:44;9.70;;;6.10;;
59008;SDS011;44794;42.652;23.318;2023-11-21T06:10:10;13.65;;;6.97;;
59008;SDS011;44794;42.652;23.318;2023-11-21T06:12:39;10.38;;;5.38;;
59008;SDS011;44794;42.652;23.318;2023-11-21T06:15:08;10.68;;;5.03;;
59008;SDS011;44794;42.652;23.318;2023-11-21T06:17:35;9.10;;;4.28;;
59008;SDS011;44794;42.652;23.318;2023-11-21T06:20:04;12.63;;;5.82;;
59008;SDS011;44794;42.652;23.318;2023-11-21T06:22:35;6.88;;;4.78;;
59008;SDS011;44794;42.652;23.318;2023-11-21T06:25:01;12.15;;;5.18;;
59008;SDS011;44794;42.652;23.318;2023-11-21T06:27:28;8.40;;;3.83;;
59008;SDS011;44794;42.652;23.318;2023-11-21T06:29:54;6.10;;;3.72;;
59008;SDS011;44794;42.652;23.318;2023-11-21T06:32:20;8.70;;;4.50;;
59008;SDS011;44794;42.652;23.318;2023-11-21T06:34:47;6.75;;;3.20;;
59008;SDS011;44794;42.652;23.318;2023-11-21T06:37:13;6.65;;;3.72;;
59008;SDS011;44794;42.652;23.318;2023-11-21T06:39:38;7.00;;;3.80;;
59008;SDS011;44794;42.652;23.318;2023-11-21T06:42:03;7.03;;;3.03;;
59008;SDS011;44794;42.652;23.318;2023-11-21T06:44:29;7.38;;;3.97;;
59008;SDS011;44794;42.652;23.318;2023-11-21T06:46:55;9.77;;;4.30;;
59008;SDS011;44794;42.652;23.318;2023-11-21T06:49:20;11.63;;;3.45;;
59008;SDS011;44794;42.652;23.318;2023-11-21T06:51:45;8.73;;;4.93;;
59008;SDS011;44794;42.652;23.318;2023-11-21T06:54:11;8.55;;;3.97;;
59008;SDS011;44794;42.652;23.318;2023-11-21T06:56:36;8.98;;;4.55;;
59008;SDS011;44794;42.652;23.318;2023-11-21T06:59:04;13.63;;;3.95;;
59008;SDS011;44794;42.652;23.318;2023-11-21T07:01:30;7.38;;;5.57;;
59008;SDS011;44794;42.652;23.318;2023-11-21T07:03:59;10.73;;;4.43;;
59008;SDS011;44794;42.652;23.318;2023-11-21T07:06:24;12.10;;;4.68;;
59008;SDS011;44794;42.652;23.318;2023-11-21T07:08:50;13.90;;;4.00;;
59008;SDS011;44794;42.652;23.318;2023-11-21T07:11:15;6.88;;;4.25;;
59008;SDS011;44794;42.652;23.318;2023-11-21T07:13:41;7.82;;;3.80;;
59008;SDS011;44794;42.652;23.318;2023-11-21T07:16:06;8.63;;;3.25;;
59008;SDS011;44794;42.652;23.318;2023-11-21T07:18:32;8.32;;;3.80;;
59008;SDS011;44794;42.652;23.318;2023-11-21T07:20:57;7.70;;;4.30;;
59008;SDS011;44794;42.652;23.318;2023-11-21T07:23:23;10.55;;;4.20;;
59008;SDS011;44794;42.652;23.318;2023-11-21T07:25:49;7.15;;;3.60;;
59008;SDS011;44794;42.652;23.318;2023-11-21T07:28:14;8.00;;;3.40;;
59008;SDS011;44794;42.652;23.318;2023-11-21T07:30:40;10.20;;;4.45;;
59008;SDS011;44794;42.652;23.318;2023-11-21T07:33:05;14.75;;;3.92;;
59008;SDS011;44794;42.652;23.318;2023-11-21T07:35:32;8.98;;;4.93;;
59008;SDS011;44794;42.652;23.318;2023-11-21T07:37:57;7.00;;;3.65;;
59008;SDS011;44794;42.652;23.318;2023-11-21T07:40:23;16.15;;;4.90;;
59008;SDS011;44794;42.652;23.318;2023-11-21T07:42:48;10.25;;;4.85;;
59008;SDS011;44794;42.652;23.318;2023-11-21T07:45:15;9.82;;;4.28;;
59008;SDS011;44794;42.652;23.318;2023-11-21T07:47:40;10.05;;;4.65;;
59008;SDS011;44794;42.652;23.318;2023-11-21T07:50:06;10.95;;;3.80;;
59008;SDS011;44794;42.652;23.318;2023-11-21T07:52:32;11.73;;;5.55;;
59008;SDS011;44794;42.652;23.318;2023-11-21T07:54:58;9.07;;;4.22;;
59008;SDS011;44794;42.652;23.318;2023-11-21T07:57:23;13.40;;;5.43;;
59008;SDS011;44794;42.652;23.318;2023-11-21T07:59:49;10.43;;;5.15;;
59008;SDS011;44794;42.652;23.318;2023-11-21T08:02:14;15.35;;;4.68;;
59008;SDS011;44794;42.652;23.318;2023-11-21T08:04:41;9.90;;;5.20;;
59008;SDS011;44794;42.652;23.318;2023-11-21T08:07:07;11.40;;;5.68;;
59008;SDS011;44794;42.652;23.318;2023-11-21T08:09:32;11.88;;;4.93;;
59008;SDS011;44794;42.652;23.318;2023-11-21T08:11:59;14.27;;;4.07;;
59008;SDS011;44794;42.652;23.318;2023-11-21T08:14:25;13.63;;;6.22;;
59008;SDS011;44794;42.652;23.318;2023-11-21T08:16:51;7.85;;;4.50;;
59008;SDS011;44794;42.652;23.318;2023-11-21T08:19:17;8.70;;;4.03;;
59008;SDS011;44794;42.652;23.318;2023-11-21T08:21:43;7.97;;;5.93;;
59008;SDS011;44794;42.652;23.318;2023-11-21T08:24:09;11.77;;;4.35;;
59008;SDS011;44794;42.652;23.318;2023-11-21T08:26:36;10.15;;;5.43;;
59008;SDS011;44794;42.652;23.318;2023-11-21T08:29:03;9.57;;;4.22;;
59008;SDS011;44794;42.652;23.318;2023-11-21T08:31:28;7.30;;;4.20;;
59008;SDS011;44794;42.652;23.318;2023-11-21T08:33:54;14.70;;;7.20;;
59008;SDS011;44794;42.652;23.318;2023-11-21T08:36:22;10.68;;;4.88;;
59008;SDS011;44794;42.652;23.318;2023-11-21T08:38:49;9.57;;;5.10;;
59008;SDS011;44794;42.652;23.318;2023-11-21T08:41:17;11.32;;;5.43;;
59008;SDS011;44794;42.652;23.318;2023-11-21T08:43:47;10.80;;;5.32;;
59008;SDS011;44794;42.652;23.318;2023-11-21T08:46:13;11.57;;;4.93;;
59008;SDS011;44794;42.652;23.318;2023-11-21T08:48:42;10.73;;;4.75;;
59008;SDS011;44794;42.652;23.318;2023-11-21T08:51:09;7.97;;;3.83;;
59008;SDS011;44794;42.652;23.318;2023-11-21T08:53:38;13.43;;;4.60;;
59008;SDS011;44794;42.652;23.318;2023-11-21T08:56:05;10.07;;;4.38;;
59008;SDS011;44794;42.652;23.318;2023-11-21T08:58:31;7.28;;;4.38;;
59008;SDS011;44794;42.652;23.318;2023-11-21T09:00:58;11.55;;;4.07;;
59008;SDS011;44794;42.652;23.318;2023-11-21T09:03:24;10.90;;;3.92;;
59008;SDS011;44794;42.652;23.318;2023-11-21T09:05:50;8.77;;;4.18;;
59008;SDS011;44794;42.652;23.318;2023-11-21T09:08:16;9.13;;;3.83;;
59008;SDS011;44794;42.652;23.318;2023-11-21T09:10:42;9.73;;;4.55;;
59008;SDS011;44794;42.652;23.318;2023-11-21T09:13:08;9.35;;;3.72;;
59008;SDS011;44794;42.652;23.318;2023-11-21T09:15:34;8.05;;;4.18;;
59008;SDS011;44794;42.652;23.318;2023-11-21T09:18:00;9.10;;;3.40;;
59008;SDS011;44794;42.652;23.318;2023-11-21T09:20:26;7.35;;;4.10;;
59008;SDS011;44794;42.652;23.318;2023-11-21T09:22:52;8.25;;;4.47;;
59008;SDS011;44794;42.652;23.318;2023-11-21T09:25:17;10.15;;;4.68;;
59008;SDS011;44794;42.652;23.318;2023-11-21T09:27:44;8.10;;;4.38;;
59008;SDS011;44794;42.652;23.318;2023-11-21T09:30:11;6.13;;;3.05;;
59008;SDS011;44794;42.652;23.318;2023-11-21T09:32:39;6.10;;;3.33;;
59008;SDS011;44794;42.652;23.318;2023-11-21T09:35:05;11.02;;;3.50;;
59008;SDS011;44794;42.652;23.318;2023-11-21T09:37:33;11.88;;;4.07;;
59008;SDS011;44794;42.652;23.318;2023-11-21T09:39:59;10.43;;;3.92;;
59008;SDS011;44794;42.652;23.318;2023-11-21T09:42:57;12.75;;;4.15;;
59008;SDS011;44794;42.652;23.318;2023-11-21T09:45:21;10.10;;;4.28;;
59008;SDS011;44794;42.652;23.318;2023-11-21T09:47:52;10.73;;;4.60;;
59008;SDS011;44794;42.652;23.318;2023-11-21T09:50:21;8.00;;;3.90;;
59008;SDS011;44794;42.652;23.318;2023-11-21T09:55:41;7.78;;;3.53;;
59008;SDS011;44794;42.652;23.318;2023-11-21T09:58:08;4.90;;;3.05;;
59008;SDS011;44794;42.652;23.318;2023-11-21T10:00:37;5.70;;;2.92;;
59008;SDS011;44794;42.652;23.318;2023-11-21T10:03:08;7.28;;;4.18;;
59008;SDS011;44794;42.652;23.318;2023-11-21T10:05:34;5.85;;;2.42;;
59008;SDS011;44794;42.652;23.318;2023-11-21T10:08:00;5.43;;;2.55;;
59008;SDS011;44794;42.652;23.318;2023-11-21T10:10:27;4.88;;;2.53;;
59008;SDS011;44794;42.652;23.318;2023-11-21T10:12:57;12.45;;;3.10;;
59008;SDS011;44794;42.652;23.318;2023-11-21T10:15:27;6.72;;;3.03;;
59008;SDS011;44794;42.652;23.318;2023-11-21T10:17:55;8.50;;;3.13;;
59008;SDS011;44794;42.652;23.318;2023-11-21T10:20:20;5.05;;;2.42;;
59008;SDS011;44794;42.652;23.318;2023-11-21T10:22:47;3.70;;;2.10;;
59008;SDS011;44794;42.652;23.318;2023-11-21T10:25:12;4.90;;;2.55;;
59008;SDS011;44794;42.652;23.318;2023-11-21T10:27:43;5.35;;;2.45;;
59008;SDS011;44794;42.652;23.318;2023-11-21T10:30:11;9.00;;;4.03;;
59008;SDS011;44794;42.652;23.318;2023-11-21T10:32:37;7.00;;;3.03;;
59008;SDS011;44794;42.652;23.318;2023-11-21T10:35:10;7.88;;;3.17;;
59008;SDS011;44794;42.652;23.318;2023-11-21T10:37:39;6.32;;;3.40;;
59008;SDS011;44794;42.652;23.318;2023-11-21T10:40:06;3.47;;;2.90;;
59008;SDS011;44794;42.652;23.318;2023-11-21T10:42:40;4.93;;;2.60;;
59008;SDS011;44794;42.652;23.318;2023-11-21T10:45:10;6.55;;;2.58;;
59008;SDS011;44794;42.652;23.318;2023-11-21T10:47:41;6.35;;;3.17;;
59008;SDS011;44794;42.652;23.318;2023-11-21T10:50:07;16.40;;;4.32;;
59008;SDS011;44794;42.652;23.318;2023-11-21T10:52:39;4.55;;;1.80;;
59008;SDS011;44794;42.652;23.318;2023-11-21T10:55:20;9.68;;;3.88;;
59008;SDS011;44794;42.652;23.318;2023-11-21T10:57:51;6.28;;;2.83;;
59008;SDS011;44794;42.652;23.318;2023-11-21T11:00:18;10.93;;;2.47;;
59008;SDS011;44794;42.652;23.318;2023-11-21T11:02:53;9.75;;;3.30;;
59008;SDS011;44794;42.652;23.318;2023-11-21T11:05:24;7.43;;;3.22;;
59008;SDS011;44794;42.652;23.318;2023-11-21T11:08:03;5.90;;;3.55;;
59008;SDS011;44794;42.652;23.318;2023-11-21T11:10:31;7.50;;;3.83;;
59008;SDS011;44794;42.652;23.318;2023-11-21T11:12:57;7.43;;;3.65;;
59008;SDS011;44794;42.652;23.318;2023-11-21T11:15:27;15.95;;;3.78;;
59008;SDS011;44794;42.652;23.318;2023-11-21T11:17:53;12.57;;;4.28;;
59008;SDS011;44794;42.652;23.318;2023-11-21T11:20:22;5.40;;;3.78;;
59008;SDS011;44794;42.652;23.318;2023-11-21T11:28:06;5.82;;;3.30;;
59008;SDS011;44794;42.652;23.318;2023-11-21T11:38:36;7.15;;;3.85;;
59008;SDS011;44794;42.652;23.318;2023-11-21T11:41:03;8.57;;;4.18;;
59008;SDS011;44794;42.652;23.318;2023-11-21T11:43:29;13.00;;;6.40;;
59008;SDS011;44794;42.652;23.318;2023-11-21T11:45:58;14.25;;;6.00;;
59008;SDS011;44794;42.652;23.318;2023-11-21T11:51:07;10.90;;;5.07;;
59008;SDS011;44794;42.652;23.318;2023-11-21T11:53:43;6.35;;;3.25;;
59008;SDS011;44794;42.652;23.318;2023-11-21T11:56:27;6.13;;;3.75;;
59008;SDS011;44794;42.652;23.318;2023-11-21T11:58:56;14.57;;;5.60;;
59008;SDS011;44794;42.652;23.318;2023-11-21T12:01:23;14.18;;;4.35;;
59008;SDS011;44794;42.652;23.318;2023-11-21T12:06:48;7.57;;;3.83;;
59008;SDS011;44794;42.652;23.318;2023-11-21T12:11:46;8.95;;;3.25;;
59008;SDS011;44794;42.652;23.318;2023-11-21T12:14:13;5.82;;;3.42;;
59008;SDS011;44794;42.652;23.318;2023-11-21T12:16:39;8.82;;;3.58;;
59008;SDS011;44794;42.652;23.318;2023-11-21T12:19:05;7.95;;;3.80;;
59008;SDS011;44794;42.652;23.318;2023-11-21T12:21:30;7.72;;;4.25;;
59008;SDS011;44794;42.652;23.318;2023-11-21T12:23:57;8.38;;;4.40;;
59008;SDS011;44794;42.652;23.318;2023-11-21T12:26:25;9.98;;;5.00;;
59008;SDS011;44794;42.652;23.318;2023-11-21T12:28:52;13.45;;;4.40;;
59008;SDS011;44794;42.652;23.318;2023-11-21T12:31:20;10.48;;;4.57;;
59008;SDS011;44794;42.652;23.318;2023-11-21T12:33:46;10.82;;;4.65;;
59008;SDS011;44794;42.652;23.318;2023-11-21T12:36:12;13.48;;;7.00;;
59008;SDS011;44794;42.652;23.318;2023-11-21T12:38:38;10.00;;;5.15;;
59008;SDS011;44794;42.652;23.318;2023-11-21T12:41:03;13.50;;;5.22;;
59008;SDS011;44794;42.652;23.318;2023-11-21T12:43:30;11.73;;;5.45;;
59008;SDS011;44794;42.652;23.318;2023-11-21T12:46:06;10.38;;;4.20;;
59008;SDS011;44794;42.652;23.318;2023-11-21T12:48:32;12.20;;;5.43;;
59008;SDS011;44794;42.652;23.318;2023-11-21T12:50:57;13.02;;;5.07;;
59008;SDS011;44794;42.652;23.318;2023-11-21T12:53:25;9.15;;;4.93;;
59008;SDS011;44794;42.652;23.318;2023-11-21T12:55:51;11.00;;;5.40;;
59008;SDS011;44794;42.652;23.318;2023-11-21T12:58:17;16.20;;;6.55;;
59008;SDS011;44794;42.652;23.318;2023-11-21T13:00:46;10.07;;;4.55;;
59008;SDS011;44794;42.652;23.318;2023-11-21T13:03:13;12.27;;;5.47;;
59008;SDS011;44794;42.652;23.318;2023-11-21T13:05:44;18.25;;;6.50;;
59008;SDS011;44794;42.652;23.318;2023-11-21T13:08:12;10.23;;;4.13;;
59008;SDS011;44794;42.652;23.318;2023-11-21T13:10:39;16.27;;;6.47;;
59008;SDS011;44794;42.652;23.318;2023-11-21T13:13:07;14.70;;;5.88;;
59008;SDS011;44794;42.652;23.318;2023-11-21T13:15:34;14.52;;;6.65;;
59008;SDS011;44794;42.652;23.318;2023-11-21T13:18:03;13.65;;;6.00;;
59008;SDS011;44794;42.652;23.318;2023-11-21T13:20:28;14.50;;;6.30;;
59008;SDS011;44794;42.652;23.318;2023-11-21T13:22:55;17.30;;;6.65;;
59008;SDS011;44794;42.652;23.318;2023-11-21T13:25:24;20.35;;;6.90;;
59008;SDS011;44794;42.652;23.318;2023-11-21T13:27:52;20.63;;;7.57;;
59008;SDS011;44794;42.652;23.318;2023-11-21T13:30:21;9.85;;;5.88;;
59008;SDS011;44794;42.652;23.318;2023-11-21T13:32:52;9.15;;;6.15;;
59008;SDS011;44794;42.652;23.318;2023-11-21T13:35:22;11.70;;;5.90;;
59008;SDS011;44794;42.652;23.318;2023-11-21T13:37:56;12.23;;;5.50;;
59008;SDS011;44794;42.652;23.318;2023-11-21T13:40:25;9.52;;;4.85;;
59008;SDS011;44794;42.652;23.318;2023-11-21T13:42:55;17.15;;;6.00;;
59008;SDS011;44794;42.652;23.318;2023-11-21T13:45:24;16.85;;;6.57;;
59008;SDS011;44794;42.652;23.318;2023-11-21T13:47:51;15.00;;;5.95;;
59008;SDS011;44794;42.652;23.318;2023-11-21T13:50:21;10.60;;;5.65;;
59008;SDS011;44794;42.652;23.318;2023-11-21T13:52:58;12.20;;;5.75;;
59008;SDS011;44794;42.652;23.318;2023-11-21T13:55:41;14.10;;;7.18;;
59008;SDS011;44794;42.652;23.318;2023-11-21T13:58:07;19.23;;;8.60;;
59008;SDS011;44794;42.652;23.318;2023-11-21T14:00:36;16.67;;;7.03;;
59008;SDS011;44794;42.652;23.318;2023-11-21T14:03:12;14.73;;;7.78;;
59008;SDS011;44794;42.652;23.318;2023-11-21T14:05:46;19.27;;;7.88;;
59008;SDS011;44794;42.652;23.318;2023-11-21T14:08:18;15.65;;;6.38;;
59008;SDS011;44794;42.652;23.318;2023-11-21T14:10:45;15.18;;;6.63;;
59008;SDS011;44794;42.652;23.318;2023-11-21T14:13:16;12.75;;;4.75;;
59008;SDS011;44794;42.652;23.318;2023-11-21T14:15:42;14.45;;;7.82;;
59008;SDS011;44794;42.652;23.318;2023-11-21T14:18:15;15.90;;;6.88;;
59008;SDS011;44794;42.652;23.318;2023-11-21T14:20:42;14.27;;;6.03;;
59008;SDS011;44794;42.652;23.318;2023-11-21T14:23:09;11.52;;;6.75;;
59008;SDS011;44794;42.652;23.318;2023-11-21T14:25:35;12.77;;;6.45;;
59008;SDS011;44794;42.652;23.318;2023-11-21T14:28:02;12.88;;;6.32;;
59008;SDS011;44794;42.652;23.318;2023-11-21T14:30:30;10.82;;;6.15;;
59008;SDS011;44794;42.652;23.318;2023-11-21T14:32:57;15.10;;;6.60;;
59008;SDS011;44794;42.652;23.318;2023-11-21T14:35:23;14.60;;;5.78;;
59008;SDS011;44794;42.652;23.318;2023-11-21T14:37:49;13.48;;;5.40;;
59008;SDS011;44794;42.652;23.318;2023-11-21T14:40:14;17.30;;;6.60;;
59008;SDS011;44794;42.652;23.318;2023-11-21T14:42:41;11.27;;;6.47;;
59008;SDS011;44794;42.652;23.318;2023-11-21T14:45:12;9.18;;;4.50;;
59008;SDS011;44794;42.652;23.318;2023-11-21T14:47:41;11.88;;;5.78;;
59008;SDS011;44794;42.652;23.318;2023-11-21T14:50:11;15.90;;;6.63;;
59008;SDS011;44794;42.652;23.318;2023-11-21T14:52:57;11.40;;;6.15;;
59008;SDS011;44794;42.652;23.318;2023-11-21T14:55:24;10.13;;;5.32;;